Latest Weather Observations for Griffith

IDN60801

Issued at 10:05 pm EDT Saturday 25 October 2014 (issued every 30 minutes, with the page automatically refreshed every 10 minutes)

About weather observations | Map of weather stations | Latest weather observations for NSW | Other Formats
Station Details ID: 075041 Name: GRIFFITH AIRPORT AWS Lat: -34.25 Lon: 146.07 Height: 134.0 m
Data from the previous 72 hours. | See also: Recent months at Griffith
Date/Time
EDT
Temp
°C
App
Temp
°C
Dew
Point
Rel
Hum
%
Delta-T
°C
Wind Press
QNH
hPa
Press
MSL
hPa
Rain
since 9 am
mm
Dir
 
Spd
km/h
Gust
km/h
Spd
kts
Gust
kts
25/10:00pm 27.5 22.4 9.3 32 10.1 WSW 26 35 14 19 1010.8 1010.6 0.0
25/09:30pm 27.8 23.3 7.1 27 11.1 WSW 20 30 11 16 1010.4 1010.2 0.0
25/09:00pm 27.5 24.8 7.4 28 10.8 WNW 11 15 6 8 1010.0 1009.8 0.0
25/08:30pm 29.1 27.2 6.5 24 12.1 N 6 9 3 5 1009.5 1009.2 0.0
25/08:00pm 30.8 27.4 6.0 21 13.3 N 13 20 7 11 1009.1 1008.8 0.0
25/07:30pm 31.3 28.0 6.4 21 13.4 NW 13 19 7 10 1009.2 1008.9 0.0
25/07:00pm 32.8 29.1 6.2 19 14.4 NNE 15 20 8 11 1008.6 1008.3 0.0
25/06:30pm 33.3 30.1 5.0 17 15.1 N 11 17 6 9 1008.4 1008.1 0.0
25/06:00pm 34.3 30.7 3.0 14 16.3 NNE 11 22 6 12 1008.9 1008.6 0.0
25/05:30pm 34.6 30.3 3.2 14 16.4 N 15 20 8 11 1009.1 1008.8 0.0
25/05:00pm 36.6 31.2 1.4 11 18.1 NW 19 30 10 16 1008.6 1008.3 0.0
25/04:56pm 36.4 31.2 2.4 12 17.7 NNW 19 30 10 16 1008.7 1008.4 0.0
25/04:42pm 34.8 31.5 2.3 13 16.7 N 9 24 5 13 1009.1 1008.8 0.0
25/04:40pm 34.7 22.4 2.3 13 16.7 WNW 56 87 30 47 1009.8 1009.6 0.0
25/04:37pm 35.5 24.5 0.6 11 17.6 WNW 48 83 26 45 1009.0 1008.7 0.0
25/04:30pm 36.2 30.8 1.1 11 17.9 W 19 24 10 13 1008.6 1008.3 0.0
25/04:00pm 37.5 32.0 0.7 10 18.8 NW 19 26 10 14 1008.7 1008.4 0.0
25/03:30pm 38.0 31.8 2.4 11 18.7 WNW 24 35 13 19 1009.3 1009.0 0.0
25/03:00pm 38.5 32.0 0.0 9 19.6 W 24 30 13 16 1009.9 1009.7 0.0
25/02:30pm 37.1 31.4 0.4 10 18.6 WNW 20 32 11 17 1010.7 1010.5 0.0
25/02:00pm 37.9 - 1.0 10 19.0 - - - - - 1011.3 1011.1 0.0
25/01:30pm 36.4 30.6 -0.1 10 18.3 NW 20 30 11 16 1011.9 1011.7 0.0
25/01:00pm 36.0 29.8 0.0 10 18.0 NW 22 32 12 17 1012.6 1012.4 0.0
25/12:30pm 34.3 28.5 -0.4 11 17.0 ENE 20 32 11 17 1013.2 1013.0 0.0
25/12:00pm 33.5 27.8 -1.0 11 16.7 NE 19 26 10 14 1013.7 1013.5 0.0
25/11:30am 32.8 27.0 -1.5 11 16.4 NE 19 24 10 13 1014.1 1013.9 0.0
25/11:00am 31.6 27.9 -0.1 13 15.4 E 9 13 5 7 1015.1 1014.9 0.0
25/10:30am 31.7 27.2 -0.1 13 15.4 ENE 13 20 7 11 1015.0 1014.8 0.0
25/10:00am 30.3 26.4 -1.2 13 14.8 ENE 9 15 5 8 1015.3 1015.1 0.0
25/09:30am 29.1 25.1 0.7 16 13.7 E 11 15 6 8 1015.1 1014.9 0.0
25/08:30am 22.6 19.5 3.8 29 9.2 ESE 9 9 5 5 1015.2 1015.0 0.0
25/08:00am 19.9 16.6 4.8 37 7.4 E 11 15 6 8 1015.1 1014.9 0.0
25/07:30am 18.5 15.5 6.0 44 6.2 E 11 15 6 8 1014.7 1014.5 0.0
25/07:00am 16.2 12.6 6.6 53 4.7 ESE 15 17 8 9 1014.5 1014.3 0.0
25/06:30am 15.0 12.9 6.6 57 4.1 SE 7 9 4 5 1014.2 1014.0 0.0
25/06:00am 14.7 12.6 4.1 49 4.9 S 4 7 2 4 1014.2 1014.0 0.0
25/05:30am 14.7 12.3 4.1 49 4.9 S 6 6 3 3 1014.0 1013.8 0.0
25/05:00am 14.8 13.5 4.2 49 4.9 CALM 0 0 0 0 1014.0 1013.8 0.0
25/04:30am 14.7 13.4 4.1 49 4.9 CALM 0 0 0 0 1013.8 1013.6 0.0
25/04:00am 15.8 14.5 4.2 46 5.4 CALM 0 0 0 0 1013.8 1013.6 0.0
25/03:30am 17.0 15.5 3.0 39 6.5 CALM 0 0 0 0 1013.6 1013.4 0.0
25/03:00am 17.8 16.2 2.5 36 7.0 CALM 0 0 0 0 1013.9 1013.7 0.0
25/02:30am 17.1 15.6 3.1 39 6.5 CALM 0 0 0 0 1014.1 1013.9 0.0
25/02:00am 16.6 15.3 4.0 43 5.9 CALM 0 0 0 0 1014.6 1014.4 0.0
25/01:30am 17.0 15.6 3.7 41 6.2 NW 0 0 0 0 1014.6 1014.4 0.0
25/01:00am 18.1 16.8 3.9 39 6.7 CALM 0 0 0 0 1014.7 1014.5 0.0
25/12:30am 17.5 16.2 4.1 41 6.3 CALM 0 0 0 0 1015.0 1014.8 0.0
25/12:00am 18.4 17.1 4.2 39 6.8 NW 0 0 0 0 1015.0 1014.8 0.0
 
Date/Time
EDT
Temp
°C
App
Temp
°C
Dew
Point
Rel
Hum
%
Delta-T
°C
Wind Press
QNH
hPa
Press
MSL
hPa
Rain
since 9 am
mm
Dir
 
Spd
km/h
Gust
km/h
Spd
kts
Gust
kts
24/11:30pm 19.7 17.1 4.3 36 7.4 N 7 9 4 5 1014.8 1014.6 0.0
24/11:00pm 20.0 18.8 4.5 36 7.5 CALM 0 0 0 0 1014.8 1014.6 0.0
24/10:30pm 20.7 19.5 4.7 35 7.8 CALM 0 0 0 0 1014.8 1014.6 0.0
24/10:00pm 22.5 20.1 5.2 32 8.7 NNW 7 7 4 4 1014.7 1014.5 0.0
24/09:30pm 22.6 21.5 5.1 32 8.8 CALM 0 6 0 3 1014.6 1014.4 0.0
24/09:00pm 23.3 21.2 5.7 32 8.9 W 6 7 3 4 1014.1 1013.9 0.0
24/08:30pm 24.4 22.1 5.7 30 9.6 W 7 9 4 5 1013.5 1013.3 0.0
24/08:00pm 25.7 22.7 5.8 28 10.3 W 11 13 6 7 1013.2 1013.0 0.0
24/07:30pm 27.3 23.7 5.0 24 11.5 W 13 17 7 9 1012.9 1012.7 0.0
24/07:00pm 28.9 24.3 3.6 20 12.8 WSW 17 20 9 11 1012.5 1012.3 0.0
24/06:30pm 29.8 23.6 2.1 17 13.8 WSW 24 32 13 17 1012.3 1012.1 0.0
24/06:00pm 30.7 23.7 2.0 16 14.3 WSW 28 39 15 21 1012.0 1011.8 0.0
24/05:30pm 31.5 23.7 2.7 16 14.6 WSW 33 43 18 23 1011.6 1011.4 0.0
24/05:00pm 32.6 24.2 1.7 14 15.6 WSW 35 46 19 25 1011.2 1011.0 0.0
24/04:30pm 34.1 26.3 4.7 16 15.7 WSW 35 46 19 25 1011.1 1010.9 0.0
24/04:00pm 34.6 26.7 2.2 13 16.6 W 33 44 18 24 1011.0 1010.8 0.0
24/03:30pm 34.2 26.8 4.0 15 15.9 W 32 39 17 21 1010.9 1010.7 0.0
24/03:00pm 34.9 29.1 4.4 15 16.3 W 24 37 13 20 1010.9 1010.7 0.0
24/02:30pm 34.3 28.2 4.9 16 15.7 W 26 33 14 18 1011.3 1011.1 0.0
24/02:00pm 35.5 - 7.5 18 15.7 - - - - - 1011.5 1011.3 0.0
24/01:30pm 34.7 29.4 5.2 16 15.9 W 22 37 12 20 1011.7 1011.5 0.0
24/01:00pm 34.1 - 6.4 18 15.2 - - - - - 1011.8 1011.6 0.0
24/12:30pm 34.0 30.3 6.3 18 15.1 WNW 15 20 8 11 1012.0 1011.8 0.0
24/12:00pm 33.3 28.7 5.8 18 14.9 WNW 19 26 10 14 1012.3 1012.1 0.0
24/11:30am - - 7.1 - - WNW 17 26 9 14 - 1012.8 0.0
24/11:00am 31.4 27.0 6.5 21 13.5 NNW 19 26 10 14 1013.0 1012.8 0.0
24/10:30am 30.5 25.5 6.4 22 12.9 NW 22 30 12 16 1013.1 1012.9 0.0
24/10:00am 30.3 25.4 6.9 23 12.7 NNW 22 30 12 16 1013.2 1013.0 0.0
24/09:30am 29.1 24.5 8.2 27 11.5 NNW 22 30 12 16 1013.7 1013.5 0.0
24/09:00am 28.7 25.0 7.9 27 11.3 N 17 24 9 13 1013.3 1013.1 -
24/08:30am 27.2 22.8 7.6 29 10.6 N 20 28 11 15 1013.3 1013.1 -
24/08:00am 25.8 22.3 7.4 31 9.8 NNE 15 20 8 11 1013.2 1013.0 -
24/07:30am 24.2 21.2 7.8 35 8.7 NE 13 17 7 9 1013.3 1013.1 -
24/07:00am 21.8 19.5 7.6 40 7.4 E 9 13 5 7 1013.1 1012.9 -
24/06:30am 24.2 20.3 6.9 33 9.0 NNE 17 28 9 15 1013.0 1012.8 -
24/06:00am 24.2 20.7 7.4 34 8.9 NNE 15 20 8 11 1012.8 1012.6 -
24/05:30am 22.3 19.6 7.3 38 7.8 NE 11 17 6 9 1012.8 1012.6 -
24/05:00am 21.6 19.0 7.8 41 7.2 NNE 11 13 6 7 1012.7 1012.5 -
24/04:30am 21.8 19.3 8.3 42 7.1 NNE 11 17 6 9 1012.8 1012.6 -
24/04:00am 21.3 18.4 8.2 43 6.9 SE 13 20 7 11 1012.4 1012.2 -
24/03:30am 24.4 21.5 8.0 35 8.8 NNW 13 17 7 9 1012.3 1012.1 -
24/03:00am 23.9 21.7 7.9 36 8.5 N 9 15 5 8 1012.5 1012.3 0.0
24/02:30am 24.2 21.9 7.4 34 8.9 NW 9 11 5 6 1012.7 1012.5 -
24/02:00am 24.4 22.1 7.5 34 8.9 NW 9 11 5 6 1012.7 1012.5 -
24/01:30am - - 7.5 - - NW 7 9 4 5 - 1012.4 -
24/01:00am 24.0 21.9 6.7 33 9.0 WNW 7 9 4 5 1013.2 1013.0 -
24/12:30am 27.4 23.1 6.8 27 11.0 N 19 22 10 12 1013.0 1012.8 -
24/12:00am 28.2 22.8 6.3 25 11.6 N 24 35 13 19 1013.1 1012.9 -
 
Date/Time
EDT
Temp
°C
App
Temp
°C
Dew
Point
Rel
Hum
%
Delta-T
°C
Wind Press
QNH
hPa
Press
MSL
hPa
Rain
since 9 am
mm
Dir
 
Spd
km/h
Gust
km/h
Spd
kts
Gust
kts
23/11:30pm 28.3 24.1 5.8 24 11.8 N 17 24 9 13 1013.1 1012.9 -
23/11:00pm 28.3 24.1 5.7 23 11.9 N 17 24 9 13 1013.2 1013.0 -
23/10:30pm 26.2 23.2 5.8 27 10.6 NNW 11 15 6 8 1013.0 1012.8 -
23/10:00pm 26.7 24.9 5.6 26 10.9 NNW 4 9 2 5 1012.9 1012.7 -
23/09:30pm 28.0 25.2 5.0 23 11.9 N 9 11 5 6 1012.6 1012.4 -
23/09:00pm 28.1 25.0 5.6 24 11.8 N 11 15 6 8 1012.3 1012.1 0.0
23/08:30pm 28.9 26.3 4.4 21 12.6 N 7 7 4 4 1011.9 1011.7 -
23/08:00pm 29.7 26.8 4.4 20 13.1 N 9 11 5 6 1011.5 1011.3 -
23/07:30pm 31.3 27.6 4.2 18 14.1 NNW 13 19 7 10 1011.3 1011.1 -
23/07:00pm 33.0 29.0 4.7 17 15.0 N 15 24 8 13 1011.2 1011.0 -
23/06:30pm - - 3.4 - - N 17 24 9 13 - 1009.6 -
23/06:00pm 34.3 29.2 4.0 15 16.0 N 20 28 11 15 1011.2 1011.0 -
23/05:30pm 34.4 28.5 4.0 15 16.0 NNW 24 30 13 16 1011.0 1010.8 -
23/05:00pm 36.1 31.4 3.3 13 17.3 NNW 17 30 9 16 1011.2 1011.0 -
23/04:30pm 35.2 31.8 3.8 14 16.6 NW 11 17 6 9 1011.5 1011.3 -
23/04:00pm 36.9 31.6 2.8 12 17.9 NW 20 30 11 16 1011.8 1011.6 -
23/03:30pm 36.6 31.4 2.6 12 17.8 NW 19 28 10 15 1012.1 1011.9 -
23/03:00pm 35.4 31.4 2.8 13 17.0 NNW 13 24 7 13 1012.6 1012.4 -
23/02:30pm 35.2 30.2 4.7 15 16.3 N 20 35 11 19 1013.1 1012.9 -
23/02:00pm 34.1 29.3 4.7 16 15.7 N 19 28 10 15 1013.8 1013.6 -
23/01:30pm 33.7 29.6 4.4 16 15.5 N 15 24 8 13 1014.2 1014.0 -
23/01:00pm 33.8 - 5.4 17 15.3 - - - - - 1014.5 1014.3 -
23/12:30pm 33.7 30.0 6.1 18 15.0 N 15 24 8 13 1014.9 1014.7 -
23/12:00pm 32.3 - 5.7 19 14.3 - - - - - 1015.8 1015.5 -
23/11:30am 31.1 27.4 7.9 23 12.8 NNE 17 28 9 15 1016.0 1015.8 0.0
23/11:00am 30.4 26.1 7.0 23 12.7 N 19 26 10 14 1016.4 1016.2 0.0
23/10:30am 29.5 25.7 7.4 25 12.0 NNE 17 24 9 13 1016.6 1016.4 0.0
23/10:00am 29.2 25.6 8.3 27 11.5 NE 17 22 9 12 1017.0 1016.8 0.0
23/09:30am 27.5 24.5 9.3 32 10.1 ENE 15 20 8 11 1017.1 1016.9 0.0
23/09:00am 26.7 22.8 7.2 29 10.4 NNE 17 22 9 12 1016.7 1016.5 -
23/08:30am 25.4 22.0 7.5 32 9.5 ENE 15 20 8 11 1016.5 1016.3 -
23/08:00am 26.3 21.9 7.4 30 10.1 N 20 28 11 15 1016.5 1016.3 -
23/07:30am 23.8 19.4 7.4 35 8.6 NNE 20 24 11 13 1016.2 1016.0 -
23/07:00am 22.7 20.8 7.7 38 7.9 SSE 7 13 4 7 1016.6 1016.4 -
23/06:30am 22.9 19.8 7.1 36 8.2 N 13 17 7 9 1015.5 1015.3 -
23/06:00am 22.6 19.0 6.8 36 8.2 N 15 19 8 10 1015.3 1015.1 -
23/05:30am 23.6 19.0 6.7 33 8.8 N 20 26 11 14 1015.0 1014.8 -
23/05:00am 23.8 19.2 6.6 33 8.9 N 20 24 11 13 1015.1 1014.9 -
23/04:30am 22.2 19.2 7.6 39 7.6 N 13 15 7 8 1015.4 1015.2 -
23/04:00am 23.0 20.4 7.9 38 8.0 N 11 19 6 10 1015.6 1015.4 -
23/03:30am 22.8 19.5 8.1 39 7.8 ENE 15 19 8 10 1015.4 1015.2 -
23/03:00am 22.8 19.1 8.1 39 7.8 E 17 20 9 11 1015.8 1015.5 0.0
23/02:30am 22.5 19.3 8.6 41 7.4 E 15 17 8 9 1016.1 1015.9 -
23/02:00am 23.2 20.0 8.5 39 7.9 ESE 15 17 8 9 1016.5 1016.3 -
23/01:30am 24.2 21.2 7.8 35 8.7 SE 13 19 7 10 1017.1 1016.9 -
23/01:00am 23.0 - 8.0 38 7.9 - - - - - 1017.2 1017.0 -
23/12:30am 21.7 19.6 8.2 42 7.1 W 9 11 5 6 1017.0 1016.8 -
23/12:00am 22.6 20.7 7.6 38 7.9 NNW 7 9 4 5 1016.5 1016.3 -
 
Date/Time
EDT
Temp
°C
App
Temp
°C
Dew
Point
Rel
Hum
%
Delta-T
°C
Wind Press
QNH
hPa
Press
MSL
hPa
Rain
since 9 am
mm
Dir
 
Spd
km/h
Gust
km/h
Spd
kts
Gust
kts
22/11:30pm 23.1 20.8 7.6 37 8.2 N 9 13 5 7 1016.5 1016.3 -
22/11:00pm 22.1 20.4 7.5 39 7.6 NE 6 7 3 4 1016.6 1016.4 -
22/10:30pm 22.6 19.7 8.0 39 7.7 E 13 17 7 9 1016.3 1016.1 -

Other Formats:

Comma delimited format used in spreadsheet applications
http://www.bom.gov.au/fwo/IDN60801/IDN60801.95704.axf

JavaScript Object Notation format (JSON) in row-major order
http://www.bom.gov.au/fwo/IDN60801/IDN60801.95704.json